01:20 Rennrad Innsbruck ARZ - Radweg - Voels - Hatting - Pettnau - Moetz
Ort Innsbruck Datum 06.07.2016 17:19:29
Kategorie Rennrad
Distanz 40,19 Kilometer Steigung 178,0 Meter Gefälle -118,0 Meter
Gesamt Zeit 01:20:46 Aktiv 01:19:49 Pause 00:00:57
Durchs. Tempo 30,2 km/h Tempo max. 43,6 km/h Tempo min. 20,6 km/h
Kalorien 0 Durchs. HF 125 BPM HF max. 154 BPM
Wetter 24 °C PartClouds Min/Max: 23,4 °C/25,2 °C; Druck: 1014,3 mbar; Rel. Feuchte: 47,7%; Taupunkt: 12,1 °C; Windgeschwindigkeit: 8,0 km/h; Niederschlag: 0,0mm
Ausrüstung Bontrager - RXL Road
Continental - Grand Prix 4000 S II 25-622
Poison - Rennrad
Shimano - HG CN-7901 Dura Ace
Notiz Innsbruck ARZ - Radweg - Voels - Hatting - Pettnau - Moetz ... trocken, bis Kematen starker Rücken-, ab dann starker Gegenwind, möglichst locker ... garmin connect
Splits
Distanz (km) Gesamt Zeit Split Zeit Split Tempo Split Tempo Höhenprofil (m)
1,00 00:01:54 00:01:54 00:01:54 31,5 -3,61
2,00 00:04:11 00:02:17 00:02:17 26,3 -3,90
3,00 00:06:09 00:01:58 00:01:58 30,4 2,20
4,00 00:08:00 00:01:51 00:01:51 32,4 1,81
5,00 00:09:46 00:01:45 00:01:46 34,1 3,54
6,00 00:11:50 00:02:03 00:02:04 29,1 10,54
7,00 00:13:34 00:01:44 00:01:44 34,5 -4,98
8,00 00:15:20 00:01:46 00:01:47 33,8 1,33
9,00 00:16:55 00:01:34 00:01:35 38,0 3,40
10,00 00:18:50 00:01:55 00:01:55 31,3 15,12
11,00 00:20:57 00:02:07 00:02:07 28,3 11,81
12,00 00:22:37 00:01:39 00:01:39 36,2 -17,04
13,00 00:24:20 00:01:43 00:01:44 34,8 -6,47
14,00 00:26:19 00:01:58 00:01:58 30,5 5,44
15,00 00:28:17 00:01:58 00:01:58 30,5 0,54
16,00 00:30:19 00:02:02 00:02:02 29,4 0,69
17,00 00:32:26 00:02:06 00:02:07 28,5 5,77
18,00 00:34:39 00:02:12 00:02:13 27,1 13,45
19,00 00:36:35 00:01:56 00:01:57 30,9 -7,44
20,00 00:38:13 00:01:37 00:01:37 37,0 -6,47
21,00 00:40:13 00:02:00 00:02:01 29,8 3,25
22,00 00:42:00 00:01:46 00:01:47 33,6 1,01
23,00 00:44:02 00:02:01 00:02:01 29,7 0,00
24,00 00:46:02 00:02:00 00:02:00 29,9 8,24
25,00 00:48:01 00:01:59 00:01:59 30,2 -3,34
26,00 00:49:53 00:01:52 00:01:52 32,1 3,32
27,00 00:51:41 00:01:47 00:01:47 33,6 1,20
28,00 00:53:29 00:01:48 00:01:49 33,2 -0,53
29,00 00:55:23 00:01:53 00:01:53 31,7 6,56
30,00 00:57:39 00:02:16 00:02:16 26,4 -1,97
31,00 00:59:31 00:01:52 00:01:52 32,0 0,51
32,00 01:01:46 00:02:14 00:02:15 26,7 2,52
33,00 01:04:03 00:02:17 00:02:17 26,2 7,70
34,00 01:06:20 00:02:16 00:02:16 26,4 0,95
35,00 01:08:32 00:02:12 00:02:12 27,2 2,08
36,00 01:10:52 00:02:19 00:02:20 25,8 -2,12
37,00 01:13:10 00:02:18 00:02:19 26,0 3,58
38,00 01:15:19 00:02:08 00:02:09 28,0 1,31
39,00 01:17:18 00:01:58 00:01:59 30,3 0,16
40,00 01:19:18 00:01:59 00:02:00 30,0 8,13
40,20 01:19:49 00:00:30 00:02:35 23,3 1,54